Time;durP1;ratioP1;P1;durP2;ratioP2;P2;SDS_P1;SDS_P2;PMS_P1;PMS_P2;Temp;Humidity;BMP_temperature;BMP_pressure;BME280_temperature;BME280_humidity;BME280_pressure;Samples;Min_cycle;Max_cycle;Signal;HPM_P1;HPM_P2
2023/07/15 00:00:58;;;;;;;6.00;2.80;;;;;;;27.50;60.10;99735.56;5049836;28;20413;-85
2023/07/15 00:03:23;;;;;;;2.58;1.92;;;;;;;27.41;60.15;99717.41;5049527;28;20037;-85
2023/07/15 00:05:49;;;;;;;5.63;2.63;;;;;;;27.09;60.40;99720.94;5049597;28;20032;-84
2023/07/15 00:08:15;;;;;;;3.47;2.80;;;;;;;27.14;59.64;99735.81;5048764;28;20461;-84
2023/07/15 00:10:43;;;;;;;2.47;1.70;;;;;;;27.24;59.38;99748.59;5064763;28;20060;-85
2023/07/15 00:13:14;;;;;;;3.15;2.22;;;;;;;26.94;59.32;99726.66;5049513;28;20580;-85
2023/07/15 00:15:42;;;;;;;4.80;2.72;;;;;;;26.76;59.58;99731.72;5049460;28;20513;-84
2023/07/15 00:18:09;;;;;;;3.63;2.92;;;;;;;26.56;59.51;99716.25;5049845;28;20079;-85
2023/07/15 00:20:35;;;;;;;7.00;3.22;;;;;;;26.69;59.87;99730.50;5029506;28;20479;-85
2023/07/15 00:23:02;;;;;;;6.30;2.92;;;;;;;26.69;59.39;99752.13;5033203;28;20032;-85
2023/07/15 00:25:30;;;;;;;2.03;1.00;;;;;;;26.32;60.05;99713.69;5050004;28;20131;-84
2023/07/15 00:27:56;;;;;;;3.58;1.92;;;;;;;26.34;59.94;99718.00;5049537;28;20043;-85
2023/07/15 00:30:22;;;;;;;3.75;2.53;;;;;;;26.30;59.57;99719.22;5051220;28;20037;-85
2023/07/15 00:32:48;;;;;;;6.22;2.38;;;;;;;26.27;59.55;99722.16;5052819;28;20044;-85
2023/07/15 00:35:28;;;;;;;2.58;1.40;;;;;;;26.39;59.70;99740.09;5053045;28;20479;-86
2023/07/15 00:37:58;;;;;;;2.58;1.88;;;;;;;26.42;59.78;99766.88;5053320;28;20499;-85
2023/07/15 00:40:25;;;;;;;10.02;2.85;;;;;;;26.37;59.59;99723.16;5052738;28;20044;-84
2023/07/15 00:43:09;;;;;;;2.55;1.67;;;;;;;26.60;59.10;99766.38;5051568;28;20140;-85
2023/07/15 00:45:34;;;;;;;7.28;2.50;;;;;;;26.57;58.89;99745.88;5052323;28;20432;-84
2023/07/15 00:48:06;;;;;;;3.88;2.55;;;;;;;26.57;58.92;99770.22;5051775;28;20043;-85
2023/07/15 00:50:32;;;;;;;2.78;1.77;;;;;;;26.43;58.79;99747.00;5053194;28;20039;-88
2023/07/15 00:52:58;;;;;;;2.90;1.63;;;;;;;26.49;59.18;99764.53;5052779;28;20544;-84
2023/07/15 00:55:24;;;;;;;3.67;1.52;;;;;;;26.32;59.03;99729.91;5052176;28;20495;-85
2023/07/15 00:57:50;;;;;;;3.80;2.45;;;;;;;26.29;59.35;99749.06;5052397;28;20109;-84
2023/07/15 01:00:16;;;;;;;5.82;1.60;;;;;;;26.09;58.65;99724.50;5052807;28;20661;-84
2023/07/15 01:02:42;;;;;;;5.63;1.75;;;;;;;26.04;58.74;99710.47;5052205;28;20475;-85
2023/07/15 01:05:09;;;;;;;2.58;1.45;;;;;;;26.25;59.04;99770.94;5051872;28;20082;-85
2023/07/15 01:07:35;;;;;;;2.42;1.85;;;;;;;25.99;59.06;99737.88;5052209;28;20159;-85
2023/07/15 01:10:00;;;;;;;2.90;2.20;;;;;;;25.83;58.95;99718.41;5052476;28;20017;-85
2023/07/15 01:12:26;;;;;;;1.65;1.38;;;;;;;25.99;58.84;99740.56;5052133;28;20086;-85
2023/07/15 01:14:51;;;;;;;5.45;1.75;;;;;;;25.89;58.74;99736.84;5051853;28;20036;-85
2023/07/15 01:17:19;;;;;;;2.08;1.30;;;;;;;25.98;59.14;99770.41;5051836;28;20133;-84
2023/07/15 01:19:44;;;;;;;5.35;1.85;;;;;;;25.97;58.94;99760.56;5048372;28;20029;-85
2023/07/15 01:22:11;;;;;;;5.72;2.08;;;;;;;25.86;59.05;99753.31;5051136;28;20376;-86
2023/07/15 01:24:36;;;;;;;2.25;1.65;;;;;;;25.75;58.78;99729.81;5046440;28;20427;-86
2023/07/15 01:27:07;;;;;;;5.72;1.27;;;;;;;25.66;58.92;99742.19;5052013;28;20029;-86
2023/07/15 01:29:32;;;;;;;2.63;1.55;;;;;;;25.75;58.65;99748.75;5036339;28;20108;-84
2023/07/15 01:31:58;;;;;;;1.98;1.05;;;;;;;25.87;58.53;99761.28;5051327;28;20392;-84
2023/07/15 01:34:24;;;;;;;8.63;2.78;;;;;;;25.85;58.48;99732.66;5051877;28;20069;-85
2023/07/15 01:36:51;;;;;;;2.30;1.70;;;;;;;25.98;58.27;99754.19;5052080;28;20025;-84
2023/07/15 01:39:16;;;;;;;3.15;1.35;;;;;;;26.00;58.23;99772.03;5051529;28;20100;-85
2023/07/15 01:41:43;;;;;;;4.75;1.77;;;;;;;25.76;58.30;99738.78;5050707;28;20120;-85
2023/07/15 01:44:08;;;;;;;6.90;1.65;;;;;;;25.82;58.17;99744.56;5052243;28;20056;-86
2023/07/15 01:46:36;;;;;;;2.22;1.20;;;;;;;25.86;57.77;99743.34;5050758;28;20466;-85
2023/07/15 01:49:03;;;;;;;2.63;1.70;;;;;;;25.85;57.74;99746.16;5051863;28;20032;-85
2023/07/15 01:51:29;;;;;;;2.03;1.40;;;;;;;25.77;57.95;99735.09;5051185;28;20053;-85
2023/07/15 01:53:55;;;;;;;2.25;1.45;;;;;;;25.87;58.04;99761.28;5050505;28;20025;-85
2023/07/15 01:56:21;;;;;;;2.60;1.27;;;;;;;25.70;58.38;99738.28;5051462;28;20445;-84
2023/07/15 01:58:46;;;;;;;6.80;2.85;;;;;;;25.80;58.05;99772.69;5051646;28;20029;-85
2023/07/15 02:01:12;;;;;;;2.83;1.75;;;;;;;25.79;58.23;99749.34;5050649;28;20060;-85
2023/07/15 02:03:37;;;;;;;5.18;2.75;;;;;;;26.00;58.03;99776.56;5050069;28;20037;-85
2023/07/15 02:06:03;;;;;;;1.98;1.13;;;;;;;26.11;57.98;99783.84;5051741;28;20029;-84
2023/07/15 02:08:28;;;;;;;3.25;1.42;;;;;;;25.89;57.79;99756.63;5051583;28;20388;-85
2023/07/15 02:10:54;;;;;;;2.22;1.30;;;;;;;25.93;57.85;99770.75;5051684;28;20053;-85
2023/07/15 02:13:19;;;;;;;1.98;1.23;;;;;;;25.58;58.02;99724.84;5051207;28;20060;-85
2023/07/15 02:15:46;;;;;;;3.30;1.20;;;;;;;25.94;58.01;99793.25;5050584;28;20036;-85
2023/07/15 02:18:11;;;;;;;2.10;1.45;;;;;;;25.64;58.41;99756.78;5051226;28;20025;-84
2023/07/15 02:20:38;;;;;;;3.65;2.15;;;;;;;25.73;58.63;99794.78;5051133;28;20480;-87
2023/07/15 02:23:03;;;;;;;7.63;2.05;;;;;;;25.36;59.57;99757.06;5050938;28;20418;-84
2023/07/15 02:25:28;;;;;;;3.28;1.83;;;;;;;25.58;59.07;99776.16;5050882;28;20033;-84
2023/07/15 02:27:54;;;;;;;2.58;2.25;;;;;;;25.64;59.47;99773.88;5050804;28;20029;-85
2023/07/15 02:30:19;;;;;;;5.93;2.55;;;;;;;25.52;59.88;99764.88;5050697;28;20037;-85
2023/07/15 02:32:45;;;;;;;3.05;1.88;;;;;;;25.52;59.88;99762.16;5050996;28;20021;-85
2023/07/15 02:35:13;;;;;;;3.85;2.15;;;;;;;25.77;59.53;99792.69;5050452;28;20067;-85
2023/07/15 02:37:40;;;;;;;4.13;2.03;;;;;;;25.85;59.43;99811.00;5050828;28;20036;-85
2023/07/15 02:40:08;;;;;;;3.72;2.20;;;;;;;25.82;59.50;99804.00;5050815;28;20111;-85
2023/07/15 02:42:33;;;;;;;4.63;1.77;;;;;;;25.37;59.80;99752.53;5049413;28;20039;-85
2023/07/15 02:45:11;;;;;;;2.25;1.35;;;;;;;25.64;60.07;99786.50;5050620;28;20032;-85
2023/07/15 02:47:39;;;;;;;1.90;1.17;;;;;;;25.64;60.29;99781.97;5047530;28;20045;-85
2023/07/15 02:50:07;;;;;;;4.57;1.98;;;;;;;25.84;59.97;99809.28;5049663;28;20029;-84
2023/07/15 02:52:34;;;;;;;2.42;1.58;;;;;;;25.71;60.20;99787.75;5048221;28;20048;-84
2023/07/15 02:55:01;;;;;;;2.42;1.73;;;;;;;25.61;60.62;99782.22;5049647;28;20033;-84
2023/07/15 02:57:27;;;;;;;4.40;2.28;;;;;;;25.80;60.88;99816.78;5049613;28;20040;-85
2023/07/15 02:59:53;;;;;;;4.68;2.83;;;;;;;25.67;61.16;99799.75;5049509;28;20039;-85
2023/07/15 03:02:20;;;;;;;5.85;2.85;;;;;;;25.55;61.08;99788.09;5050115;28;20027;-85
2023/07/15 03:04:46;;;;;;;2.75;1.45;;;;;;;25.63;61.55;99803.69;5049853;28;20029;-85
2023/07/15 03:07:15;;;;;;;2.50;1.23;;;;;;;25.65;61.54;99821.50;5049823;28;20111;-85
2023/07/15 03:09:40;;;;;;;4.20;1.70;;;;;;;25.51;61.56;99783.88;5047433;28;20529;-86
2023/07/15 03:12:10;;;;;;;4.63;1.65;;;;;;;25.71;61.50;99807.50;5050082;28;20064;-85
2023/07/15 03:14:35;;;;;;;3.78;1.85;;;;;;;25.65;61.55;99797.19;5049907;28;20534;-85
2023/07/15 03:17:02;;;;;;;3.38;1.73;;;;;;;26.01;61.64;99832.31;5049893;28;20028;-84
2023/07/15 03:19:27;;;;;;;3.40;2.10;;;;;;;26.06;61.59;99844.50;5049576;28;20033;-83
2023/07/15 03:21:53;;;;;;;4.05;1.35;;;;;;;25.88;60.25;99811.63;5049770;28;20036;-85
2023/07/15 03:24:18;;;;;;;5.47;2.90;;;;;;;25.57;60.87;99785.25;5049025;28;20502;-86
2023/07/15 03:26:44;;;;;;;3.55;1.77;;;;;;;25.85;60.93;99836.19;5049640;28;21019;-86
2023/07/15 03:29:10;;;;;;;4.45;1.88;;;;;;;25.70;61.61;99819.31;5049925;28;20047;-83
2023/07/15 03:31:37;;;;;;;5.70;1.50;;;;;;;25.76;61.38;99804.47;5049384;28;20033;-85
2023/07/15 03:34:02;;;;;;;4.97;1.20;;;;;;;25.89;61.52;99832.28;5065392;28;20051;-83
2023/07/15 03:36:28;;;;;;;4.35;2.00;;;;;;;25.97;60.85;99823.56;5049629;28;20055;-85
2023/07/15 03:38:53;;;;;;;2.65;1.88;;;;;;;26.05;59.41;99812.19;5049749;28;20041;-84
2023/07/15 03:41:19;;;;;;;2.35;1.77;;;;;;;26.22;59.43;99840.63;5048972;28;20040;-84
2023/07/15 03:43:45;;;;;;;2.35;1.75;;;;;;;26.01;59.16;99813.41;5049304;28;20387;-84
2023/07/15 03:46:12;;;;;;;8.35;2.55;;;;;;;26.16;59.61;99847.34;5050345;28;20021;-84
2023/07/15 03:48:38;;;;;;;3.38;1.23;;;;;;;26.17;58.82;99816.66;5049588;28;20036;-85
2023/07/15 03:51:04;;;;;;;9.40;3.20;;;;;;;26.19;59.24;99839.00;5048879;28;20422;-84
2023/07/15 03:53:29;;;;;;;1.15;0.88;;;;;;;26.18;59.65;99837.31;5049400;28;20105;-85
2023/07/15 03:55:55;;;;;;;2.35;1.33;;;;;;;26.08;59.64;99811.97;5049546;28;20544;-84
2023/07/15 03:58:20;;;;;;;2.78;1.58;;;;;;;26.31;59.93;99844.47;5049469;28;20505;-84
2023/07/15 04:00:45;;;;;;;4.00;1.45;;;;;;;25.98;60.27;99819.06;5048560;28;20475;-85
2023/07/15 04:03:11;;;;;;;4.50;1.55;;;;;;;25.97;59.97;99820.88;5048544;28;20029;-85
2023/07/15 04:05:36;;;;;;;2.90;2.45;;;;;;;25.81;60.31;99806.81;5052028;28;20048;-85
2023/07/15 04:08:02;;;;;;;1.98;1.13;;;;;;;25.86;60.64;99810.03;5049869;28;20120;-84
2023/07/15 04:10:27;;;;;;;4.82;1.80;;;;;;;26.05;60.46;99850.03;5048172;28;20041;-85
2023/07/15 04:12:52;;;;;;;10.27;1.88;;;;;;;26.13;60.94;99862.97;5041897;28;20041;-84
2023/07/15 04:15:18;;;;;;;2.17;1.63;;;;;;;25.92;60.60;99807.72;5053002;28;20040;-85
2023/07/15 04:17:43;;;;;;;2.33;1.63;;;;;;;26.15;60.56;99834.84;5053377;28;20033;-86
2023/07/15 04:20:14;;;;;;;8.50;1.83;;;;;;;26.17;60.54;99832.88;5053190;28;20036;-85
2023/07/15 04:22:40;;;;;;;1.42;1.00;;;;;;;26.14;60.22;99835.81;5061725;28;20036;-87
2023/07/15 04:25:07;;;;;;;2.88;1.40;;;;;;;26.03;59.51;99816.88;5052764;28;20029;-86
2023/07/15 04:27:32;;;;;;;1.30;0.80;;;;;;;26.33;59.09;99837.06;5053246;28;20033;-85
2023/07/15 04:29:58;;;;;;;3.97;1.60;;;;;;;26.52;57.95;99848.13;5053338;28;20345;-85
2023/07/15 04:32:23;;;;;;;1.75;1.02;;;;;;;26.45;58.45;99845.06;5052680;28;20119;-85
2023/07/15 04:34:52;;;;;;;1.60;1.08;;;;;;;26.39;58.92;99821.22;5052284;28;20033;-85
2023/07/15 04:37:18;;;;;;;3.70;1.83;;;;;;;26.27;57.91;99796.03;5052911;28;20487;-85
2023/07/15 04:39:43;;;;;;;3.10;1.73;;;;;;;26.82;57.19;99848.53;5052578;28;20033;-85
2023/07/15 04:42:09;;;;;;;2.75;1.38;;;;;;;26.83;57.17;99867.38;5052165;28;20421;-85
2023/07/15 04:44:34;;;;;;;1.30;1.02;;;;;;;26.88;56.54;99853.47;5052673;28;20045;-84
2023/07/15 04:47:00;;;;;;;7.00;1.35;;;;;;;27.05;55.78;99849.38;5052606;28;20029;-85
2023/07/15 04:49:25;;;;;;;2.65;1.30;;;;;;;27.25;55.43;99872.13;5052938;28;20029;-85
2023/07/15 04:51:51;;;;;;;2.65;1.30;;;;;;;27.30;54.68;99875.34;5053207;28;20029;-85
2023/07/15 04:54:17;;;;;;;3.55;1.60;;;;;;;27.17;55.58;99861.91;5051761;28;20029;-86
2023/07/15 04:56:42;;;;;;;2.40;1.98;;;;;;;27.18;54.60;99870.94;5052541;28;20079;-85
2023/07/15 04:59:08;;;;;;;6.50;2.58;;;;;;;27.08;55.35;99851.84;5032942;28;20037;-85
2023/07/15 05:01:33;;;;;;;6.18;1.42;;;;;;;27.41;54.60;99888.88;5032897;28;20462;-85
2023/07/15 05:04:01;;;;;;;2.67;2.00;;;;;;;27.54;53.97;99877.03;5041394;28;20768;-86
2023/07/15 05:06:30;;;;;;;4.50;1.98;;;;;;;27.57;54.33;99863.22;5050246;28;20111;-87
2023/07/15 05:08:57;;;;;;;3.17;1.48;;;;;;;27.78;53.47;99858.72;5041714;28;20049;-85
2023/07/15 05:11:25;;;;;;;4.90;1.75;;;;;;;27.85;53.65;99861.75;5052552;28;20021;-85
2023/07/15 05:13:51;;;;;;;5.30;1.33;;;;;;;27.86;53.14;99882.44;5052462;28;20045;-84
2023/07/15 05:16:16;;;;;;;2.95;0.98;;;;;;;27.52;53.93;99877.16;5051490;28;20083;-85
2023/07/15 05:18:42;;;;;;;3.15;1.33;;;;;;;27.26;54.34;99850.34;5052014;28;20021;-88
2023/07/15 05:21:07;;;;;;;2.05;1.60;;;;;;;27.23;54.66;99868.69;5051994;28;20086;-87
2023/07/15 05:23:33;;;;;;;2.50;1.52;;;;;;;27.28;54.74;99870.03;5051650;28;20487;-88
2023/07/15 05:26:00;;;;;;;5.40;1.58;;;;;;;27.25;54.26;99861.28;5051803;28;20039;-85
2023/07/15 05:28:30;;;;;;;7.80;1.85;;;;;;;27.36;54.50;99884.81;5050579;28;20150;-86
2023/07/15 05:31:02;;;;;;;1.90;1.42;;;;;;;27.54;53.73;99902.25;5051093;28;20059;-86
2023/07/15 05:33:29;;;;;;;4.38;2.13;;;;;;;27.78;52.97;99860.56;5051816;28;20040;-86
2023/07/15 05:35:55;;;;;;;1.88;1.17;;;;;;;27.95;53.28;99879.00;5050615;28;20029;-85
2023/07/15 05:38:25;;;;;;;4.07;3.17;;;;;;;27.81;52.98;99861.16;5051884;28;20495;-84
2023/07/15 05:40:52;;;;;;;5.72;3.10;;;;;;;28.05;53.02;99854.66;5051552;28;20120;-87
2023/07/15 05:43:19;;;;;;;2.70;1.55;;;;;;;28.42;51.86;99856.91;5052209;28;20509;-84
2023/07/15 05:45:45;;;;;;;3.13;2.08;;;;;;;28.63;50.63;99875.06;5051562;28;20033;-88
2023/07/15 05:48:11;;;;;;;3.60;1.38;;;;;;;28.55;51.15;99884.69;5051086;28;20120;-88
2023/07/15 05:50:37;;;;;;;2.67;1.67;;;;;;;28.72;50.11;99902.22;5050766;28;20568;-85
2023/07/15 05:53:06;;;;;;;1.27;0.75;;;;;;;28.70;50.71;99893.38;5051627;28;20505;-85
2023/07/15 05:55:33;;;;;;;4.75;3.20;;;;;;;29.10;50.11;99892.53;5051451;28;20082;-86
2023/07/15 05:57:59;;;;;;;2.78;1.55;;;;;;;29.10;48.64;99878.97;5050994;28;20424;-85
2023/07/15 06:00:24;;;;;;;3.85;1.35;;;;;;;29.31;48.31;99902.50;5049635;28;20029;-86
2023/07/15 06:02:50;;;;;;;16.88;2.63;;;;;;;29.62;48.39;99903.25;5049497;28;20025;-87
2023/07/15 06:05:16;;;;;;;3.85;2.80;;;;;;;29.59;47.67;99856.50;5049024;28;20041;-88
2023/07/15 06:07:41;;;;;;;2.65;1.80;;;;;;;29.51;47.30;99848.22;5049046;28;20041;-86
2023/07/15 06:10:07;;;;;;;5.95;2.55;;;;;;;29.34;47.81;99852.47;5049504;28;20033;-86
2023/07/15 06:12:32;;;;;;;5.07;2.60;;;;;;;29.83;47.10;99877.88;5049550;28;20388;-85
2023/07/15 06:14:58;;;;;;;5.05;2.08;;;;;;;30.07;47.06;99877.41;5066467;28;20029;-86
2023/07/15 06:17:24;;;;;;;4.32;1.98;;;;;;;30.09;45.92;99850.94;5050364;28;20123;-86
2023/07/15 06:19:49;;;;;;;8.23;3.55;;;;;;;30.23;46.42;99855.09;5050790;28;20149;-85
2023/07/15 06:22:14;;;;;;;5.40;2.78;;;;;;;30.48;47.02;99883.53;5050813;28;20069;-86
2023/07/15 06:24:40;;;;;;;3.05;1.80;;;;;;;30.62;45.45;99873.19;5050826;28;20029;-86
2023/07/15 06:27:08;;;;;;;3.70;2.45;;;;;;;30.50;44.96;99851.59;5050726;28;20028;-85
2023/07/15 06:29:34;;;;;;;3.92;1.83;;;;;;;30.06;45.67;99834.91;5049886;28;20025;-86
2023/07/15 06:31:59;;;;;;;5.50;1.02;;;;;;;30.55;45.74;99880.22;5050665;28;20033;-85
2023/07/15 06:34:25;;;;;;;12.82;1.58;;;;;;;30.59;45.18;99854.44;5049816;28;20028;-84
2023/07/15 06:36:57;;;;;;;2.10;1.13;;;;;;;30.34;45.25;99851.34;5047423;28;20121;-85
2023/07/15 06:39:36;;;;;;;5.70;2.95;;;;;;;30.56;45.19;99852.03;5044789;28;20119;-88
2023/07/15 06:42:06;;;;;;;1.95;1.45;;;;;;;30.28;44.34;99814.69;5063018;28;20491;-87
2023/07/15 06:44:33;;;;;;;1.85;1.08;;;;;;;30.30;44.62;99814.53;5046270;28;20028;-85
2023/07/15 06:47:09;;;;;;;2.25;1.58;;;;;;;30.45;44.49;99825.84;5065836;28;20029;-86
2023/07/15 06:49:35;;;;;;;9.00;2.03;;;;;;;31.38;44.10;99889.34;5065151;28;20064;-84
2023/07/15 06:52:04;;;;;;;1.65;1.35;;;;;;;31.23;43.93;99837.25;5047942;28;20060;-84
2023/07/15 06:54:31;;;;;;;3.55;1.30;;;;;;;31.25;43.67;99823.47;5049422;28;20036;-85
2023/07/15 06:57:03;;;;;;;2.00;1.30;;;;;;;31.44;43.62;99852.47;5049802;28;20029;-85
2023/07/15 06:59:32;;;;;;;6.35;2.15;;;;;;;31.41;42.61;99855.50;5064533;28;20021;-86
2023/07/15 07:01:57;;;;;;;3.85;2.20;;;;;;;31.45;44.80;99865.09;5047763;28;20589;-83
2023/07/15 07:04:23;;;;;;;2.10;1.40;;;;;;;32.02;44.02;99881.13;5048991;28;20036;-83
2023/07/15 07:06:48;;;;;;;10.88;2.10;;;;;;;32.40;43.01;99838.16;5050086;28;20021;-84
2023/07/15 07:09:14;;;;;;;2.13;1.60;;;;;;;32.76;42.50;99848.09;5049048;28;20510;-85
2023/07/15 07:11:39;;;;;;;4.97;2.20;;;;;;;33.13;41.40;99907.84;5049572;28;20388;-84
2023/07/15 07:14:05;;;;;;;2.10;1.38;;;;;;;33.24;41.24;99903.16;5049176;28;20036;-86
2023/07/15 07:16:30;;;;;;;2.60;1.80;;;;;;;33.11;41.75;99881.72;5049483;28;20025;-84
2023/07/15 07:18:55;;;;;;;2.33;1.90;;;;;;;33.34;39.72;99879.28;5064706;28;20097;-85
2023/07/15 07:21:21;;;;;;;2.58;1.55;;;;;;;33.82;41.24;99896.00;5048939;28;20170;-84
2023/07/15 07:23:52;;;;;;;3.92;1.88;;;;;;;33.54;40.76;99898.97;5049480;28;20128;-83
2023/07/15 07:26:17;;;;;;;4.10;1.90;;;;;;;32.95;40.54;99860.63;5048678;28;20076;-84
2023/07/15 07:28:44;;;;;;;4.30;1.90;;;;;;;33.26;40.75;99868.31;5049640;28;20071;-83
2023/07/15 07:31:11;;;;;;;2.78;1.13;;;;;;;33.28;39.80;99885.41;5048656;28;20037;-84
2023/07/15 07:33:38;;;;;;;2.78;1.88;;;;;;;33.54;39.99;99877.97;5049185;28;20526;-83
2023/07/15 07:36:03;;;;;;;3.05;1.73;;;;;;;33.76;39.38;99858.38;5049528;28;20040;-86
2023/07/15 07:38:29;;;;;;;4.50;2.10;;;;;;;34.21;38.83;99855.09;5049726;28;20037;-85
2023/07/15 07:41:02;;;;;;;5.03;2.65;;;;;;;34.16;37.96;99882.16;5052642;28;20067;-86
2023/07/15 07:43:27;;;;;;;5.47;2.05;;;;;;;33.67;38.53;99882.94;5054494;28;20491;-84
2023/07/15 07:45:53;;;;;;;6.30;1.80;;;;;;;33.22;40.35;99869.69;5053894;28;20028;-83
2023/07/15 07:48:18;;;;;;;3.63;1.75;;;;;;;33.49;39.90;99852.13;5053613;28;20029;-84
2023/07/15 07:50:45;;;;;;;5.00;2.60;;;;;;;33.30;40.32;99880.63;5053937;28;20025;-83
2023/07/15 07:53:10;;;;;;;1.85;1.45;;;;;;;32.92;40.36;99850.91;5053564;28;20024;-82
2023/07/15 07:55:36;;;;;;;2.40;1.27;;;;;;;33.00;41.61;99858.28;5053554;28;20415;-84
2023/07/15 07:58:01;;;;;;;2.30;2.05;;;;;;;33.25;42.20;99820.16;5053886;28;20059;-83
2023/07/15 08:00:27;;;;;;;8.02;4.18;;;;;;;34.13;38.57;99846.91;5053254;28;20471;-84
2023/07/15 08:02:52;;;;;;;3.17;1.88;;;;;;;34.78;38.82;99875.25;5053599;28;20024;-83
2023/07/15 08:05:18;;;;;;;5.85;2.20;;;;;;;34.76;37.48;99849.94;5052879;28;20032;-83
2023/07/15 08:07:44;;;;;;;3.70;2.22;;;;;;;34.88;36.89;99844.91;5053057;28;20405;-83
2023/07/15 08:10:09;;;;;;;5.07;1.38;;;;;;;34.61;38.55;99860.72;5053454;28;20029;-83
2023/07/15 08:12:35;;;;;;;6.18;2.47;;;;;;;34.49;37.99;99838.31;5053176;28;20021;-84
2023/07/15 08:15:00;;;;;;;6.57;2.10;;;;;;;34.35;37.71;99852.72;5053442;28;20083;-83
2023/07/15 08:17:26;;;;;;;3.42;1.80;;;;;;;34.48;38.41;99847.59;5053411;28;20031;-82
2023/07/15 08:19:51;;;;;;;3.67;1.25;;;;;;;34.91;38.04;99853.66;5052952;28;20368;-84
2023/07/15 08:22:16;;;;;;;14.32;2.53;;;;;;;34.58;37.38;99820.84;5053069;28;20037;-84
2023/07/15 08:24:42;;;;;;;3.72;1.63;;;;;;;34.90;37.45;99842.88;5052631;28;20025;-83
2023/07/15 08:27:07;;;;;;;3.83;1.92;;;;;;;35.05;37.76;99827.38;5053524;28;20029;-84
2023/07/15 08:29:33;;;;;;;3.70;2.00;;;;;;;35.37;36.40;99850.16;5052898;28;20028;-83
2023/07/15 08:31:58;;;;;;;8.00;1.98;;;;;;;35.54;37.53;99856.41;5068646;28;20403;-83
2023/07/15 08:34:24;;;;;;;2.03;1.80;;;;;;;35.97;36.41;99853.22;5052930;28;20029;-84
2023/07/15 08:36:49;;;;;;;4.43;2.55;;;;;;;35.77;36.07;99850.97;5051856;28;20029;-83
2023/07/15 08:39:14;;;;;;;4.60;1.90;;;;;;;35.88;36.25;99837.84;5052030;28;20074;-85
2023/07/15 08:41:41;;;;;;;3.92;2.72;;;;;;;35.55;36.65;99830.69;5051762;28;20082;-86
2023/07/15 08:44:07;;;;;;;4.43;1.92;;;;;;;35.76;36.11;99835.56;5052297;28;20119;-86
2023/07/15 08:46:32;;;;;;;3.10;1.92;;;;;;;35.57;35.85;99831.34;5051588;28;20115;-86
2023/07/15 08:48:59;;;;;;;3.85;2.17;;;;;;;35.47;36.24;99815.16;5051857;28;20029;-85
2023/07/15 08:51:30;;;;;;;4.05;2.22;;;;;;;35.58;37.13;99821.25;5050293;28;20530;-85
2023/07/15 08:54:00;;;;;;;4.78;2.05;;;;;;;35.77;36.70;99839.16;5051428;28;20037;-84
2023/07/15 08:56:26;;;;;;;3.33;1.83;;;;;;;35.63;35.49;99802.34;5051551;28;20145;-83
2023/07/15 08:58:53;;;;;;;5.93;2.25;;;;;;;35.90;35.70;99825.66;5052112;28;20103;-85
2023/07/15 09:01:19;;;;;;;3.95;2.15;;;;;;;35.96;36.72;99793.88;5051611;28;20186;-87
2023/07/15 09:03:46;;;;;;;5.63;2.72;;;;;;;36.03;35.72;99822.28;5051593;28;20530;-87
2023/07/15 09:06:11;;;;;;;6.30;2.75;;;;;;;35.77;35.87;99798.00;5051497;28;20064;-85
2023/07/15 09:08:41;;;;;;;2.85;1.83;;;;;;;35.63;35.34;99788.66;5067451;28;20056;-87
2023/07/15 09:11:07;;;;;;;5.35;3.10;;;;;;;35.96;35.34;99774.66;5051728;28;20495;-88
2023/07/15 09:13:32;;;;;;;4.28;2.42;;;;;;;36.16;35.22;99805.16;5051753;28;20051;-88
2023/07/15 09:15:59;;;;;;;3.53;1.95;;;;;;;35.89;35.22;99798.41;5050309;28;20526;-85
2023/07/15 09:18:24;;;;;;;17.73;3.78;;;;;;;36.01;35.69;99803.25;5050298;28;20438;-85
2023/07/15 09:21:05;;;;;;;9.25;3.80;;;;;;;36.03;35.75;99819.53;5051418;28;20033;-86
2023/07/15 09:23:31;;;;;;;5.07;2.85;;;;;;;35.54;36.46;99795.22;5038417;28;20100;-88
2023/07/15 09:26:00;;;;;;;3.53;2.55;;;;;;;35.55;36.16;99795.03;5051882;28;20534;-86
2023/07/15 09:28:27;;;;;;;7.57;2.95;;;;;;;35.80;36.84;99772.94;5050477;28;20025;-87
2023/07/15 09:30:52;;;;;;;4.47;2.55;;;;;;;36.24;35.08;99809.72;5051003;28;20496;-85
2023/07/15 09:33:35;;;;;;;7.15;3.83;;;;;;;35.81;35.45;99799.34;5050317;28;20052;-88
2023/07/15 09:36:02;;;;;;;4.95;2.83;;;;;;;35.81;35.98;99794.69;5051430;28;20093;-86
2023/07/15 09:38:34;;;;;;;18.40;5.82;;;;;;;36.03;35.47;99800.31;5050311;28;20044;-86
2023/07/15 09:41:00;;;;;;;12.30;4.53;;;;;;;36.27;36.29;99801.16;5051026;28;20064;-88
2023/07/15 09:43:49;;;;;;;4.57;2.03;;;;;;;36.40;35.53;99790.38;5065865;28;20435;-86
2023/07/15 09:46:19;;;;;;;7.43;2.47;;;;;;;36.04;35.53;99769.09;5051458;28;20025;-86
2023/07/15 09:48:46;;;;;;;4.85;2.15;;;;;;;36.23;34.18;99764.94;5050561;28;20036;-84
2023/07/15 09:51:14;;;;;;;9.15;3.15;;;;;;;36.50;33.42;99760.72;5050609;28;20036;-85
2023/07/15 09:53:50;;;;;;;7.05;2.67;;;;;;;36.35;33.41;99757.97;5050652;28;20510;-85
2023/07/15 09:56:34;;;;;;;4.65;2.55;;;;;;;37.02;32.28;99780.84;5050124;28;20029;-85
2023/07/15 09:59:12;;;;;;;4.53;2.63;;;;;;;36.63;33.17;99759.22;5050332;28;20033;-85
2023/07/15 10:01:43;;;;;;;20.15;3.55;;;;;;;36.68;33.49;99770.47;5050131;28;20048;-84
2023/07/15 10:04:23;;;;;;;3.90;1.98;;;;;;;36.94;33.63;99766.34;5049954;28;20060;-86
2023/07/15 10:06:51;;;;;;;3.95;2.08;;;;;;;36.53;32.79;99754.84;5050550;28;20051;-87
2023/07/15 10:09:18;;;;;;;5.13;2.45;;;;;;;36.47;33.25;99727.28;5050483;28;20499;-87
2023/07/15 10:11:44;;;;;;;3.55;2.40;;;;;;;36.55;32.91;99758.25;5049865;28;20151;-84
2023/07/15 10:14:10;;;;;;;3.05;1.95;;;;;;;36.26;33.05;99742.66;5050434;28;20530;-83
2023/07/15 10:16:37;;;;;;;3.65;2.20;;;;;;;36.52;33.38;99753.16;5049358;28;20056;-84
2023/07/15 10:19:03;;;;;;;3.08;2.40;;;;;;;36.31;33.44;99748.41;5046625;28;20032;-83
2023/07/15 10:21:29;;;;;;;9.38;3.42;;;;;;;36.42;32.18;99744.34;5049515;28;20041;-86
2023/07/15 10:24:09;;;;;;;4.65;2.58;;;;;;;36.37;32.76;99720.19;5049691;28;20033;-83
2023/07/15 10:26:35;;;;;;;7.93;1.80;;;;;;;36.19;32.42;99698.59;5050407;28;20106;-86
2023/07/15 10:29:02;;;;;;;3.92;2.13;;;;;;;36.38;32.68;99732.03;5046142;28;20503;-84
2023/07/15 10:31:27;;;;;;;3.67;2.00;;;;;;;36.62;32.62;99741.84;5044276;28;20060;-87
2023/07/15 10:34:04;;;;;;;4.28;2.78;;;;;;;36.69;31.76;99744.72;5041370;28;20135;-87
2023/07/15 10:36:43;;;;;;;4.25;1.67;;;;;;;36.90;32.45;99722.78;5042946;28;20025;-88
2023/07/15 10:39:19;;;;;;;4.22;2.13;;;;;;;37.43;32.44;99739.03;5038569;28;20045;-86
2023/07/15 10:41:46;;;;;;;4.55;2.15;;;;;;;37.19;31.08;99704.47;5040560;28;20037;-88
2023/07/15 10:44:38;;;;;;;3.25;1.75;;;;;;;36.76;31.17;99737.41;5044165;28;20062;-86
2023/07/15 10:47:04;;;;;;;7.25;3.25;;;;;;;36.72;31.85;99725.09;5040991;28;20418;-87
2023/07/15 10:49:31;;;;;;;2.80;2.00;;;;;;;36.49;31.65;99703.25;5039065;28;20036;-87
2023/07/15 10:51:57;;;;;;;3.33;2.28;;;;;;;37.04;32.55;99706.44;5039636;28;20033;-85
2023/07/15 10:54:27;;;;;;;3.45;1.85;;;;;;;36.87;30.88;99727.81;5039967;28;20446;-93
2023/07/15 10:56:53;;;;;;;4.78;2.60;;;;;;;36.63;31.19;99716.09;5041057;28;20033;-87
2023/07/15 10:59:23;;;;;;;2.53;1.77;;;;;;;36.54;31.02;99685.13;5038823;28;20087;-88
2023/07/15 11:01:48;;;;;;;11.27;2.95;;;;;;;36.97;31.11;99720.13;5040708;28;20119;-88
2023/07/15 11:04:19;;;;;;;9.77;2.25;;;;;;;36.94;31.01;99716.88;5042198;28;20123;-85
2023/07/15 11:06:44;;;;;;;3.17;2.03;;;;;;;37.21;31.30;99720.78;5038977;28;20025;-85
2023/07/15 11:09:15;;;;;;;3.40;2.22;;;;;;;36.85;30.65;99696.94;5056779;28;20079;-88
2023/07/15 11:11:40;;;;;;;4.95;2.60;;;;;;;37.17;31.22;99695.59;5038265;28;20048;-89
2023/07/15 11:14:24;;;;;;;4.75;2.42;;;;;;;37.18;30.57;99716.50;5039542;28;20356;-85
2023/07/15 11:16:58;;;;;;;4.68;2.10;;;;;;;37.00;31.44;99710.59;5043083;28;20059;-85
2023/07/15 11:19:27;;;;;;;3.25;2.08;;;;;;;36.84;31.42;99701.59;5036234;28;20040;-85
2023/07/15 11:21:54;;;;;;;3.72;2.45;;;;;;;37.20;30.51;99688.81;5038549;28;20064;-86
2023/07/15 11:24:24;;;;;;;4.68;2.13;;;;;;;37.46;30.35;99707.50;5042834;28;20028;-86
2023/07/15 11:26:50;;;;;;;2.33;1.67;;;;;;;37.29;30.61;99645.59;5040758;28;20795;-85
2023/07/15 11:29:24;;;;;;;3.15;2.22;;;;;;;37.32;31.42;99692.78;5039182;28;20064;-85
2023/07/15 11:31:51;;;;;;;3.17;1.98;;;;;;;36.85;31.06;99680.44;5042787;28;20025;-85
2023/07/15 11:34:26;;;;;;;8.23;3.22;;;;;;;36.88;31.29;99697.38;5037494;28;20403;-84